Kasagimaru — JJ3905 — position and weather

sailwx.info

Track history (hours):
 
Tides and Currents Weather Stations Pressure Air Temp Water Temp Dewpoint Dewpoint Depression Visibility Wind Speed Wind Dir Waves Ship Positions

Kasagimaru

Last reported at 2017-Dec-17 17:25 UTC. Time now 2017-Dec-17 17:31 UTC.
Position N 34°33' E 135°27'.

Length 42 m; draft 3.5 m.

Type: Tug. MMSI: 431300268.

Date/timePositionNaut miles runAvg speedWind from/ knotsBaromVisibWave heightAir tempDewpointWater temp
2017-Dec-17 17:25N 34°33' E 135°27'0 0.0
2017-Dec-17 16:58N 34°33' E 135°27'0 0.0
2017-Dec-17 16:28N 34°33' E 135°27'0 0.0
2017-Dec-17 15:55N 34°33' E 135°27'0 0.0
2017-Dec-17 15:13N 34°33' E 135°27'0 0.0
2017-Dec-17 14:43N 34°33' E 135°27'0 0.0
2017-Dec-17 14:25N 34°33' E 135°27'0 0.0
2017-Dec-17 13:58N 34°33' E 135°27'0 0.0
2017-Dec-17 13:25N 34°33' E 135°27'0 0.0
2017-Dec-17 12:55N 34°33' E 135°27'0 0.0
2017-Dec-17 12:28N 34°33' E 135°27'0 0.0
2017-Dec-17 11:55N 34°33' E 135°27'0 0.0
2017-Dec-17 11:28N 34°33' E 135°27'0 0.0
2017-Dec-17 10:55N 34°33' E 135°27'0 0.0
2017-Dec-17 10:28N 34°33' E 135°27'0 0.0
2017-Dec-17 09:58N 34°33' E 135°27'1 2.0
2017-Dec-17 09:30N 34°33' E 135°26'510.3
2017-Dec-17 09:00N 34°38' E 135°24'1 2.6
2017-Dec-17 08:30N 34°39' E 135°26'1 1.3
2017-Dec-17 08:00N 34°39' E 135°26'1 1.0
2017-Dec-17 07:30N 34°38' E 135°27'0 0.0
2017-Dec-17 07:00N 34°38' E 135°27'0 0.0
2017-Dec-17 06:30N 34°38' E 135°27'0 0.0
2017-Dec-17 06:00N 34°38' E 135°27'0 0.0
2017-Dec-17 05:30N 34°38' E 135°27'0 0.0
2017-Dec-17 05:00N 34°38' E 135°27'0 0.0
2017-Dec-17 04:30N 34°38' E 135°27'0 0.0
2017-Dec-17 04:00N 34°38' E 135°27'0 0.0
2017-Dec-17 03:31N 34°38' E 135°27'4 8.8
2017-Dec-17 03:00N 34°36' E 135°23'5 9.6
2017-Dec-17 02:30N 34°31' E 135°21'2 4.6
2017-Dec-17 02:00N 34°29' E 135°22'0 0.1
2017-Dec-17 01:30N 34°29' E 135°22'0 0.7
2017-Dec-17 01:00N 34°29' E 135°22'510.0
2017-Dec-17 00:30N 34°34' E 135°21'611.5
2017-Dec-17 00:00N 34°39' E 135°25'1 1.4
2017-Dec-16 23:30N 34°39' E 135°25'1 2.0
2017-Dec-16 23:00N 34°39' E 135°24'5 9.8
2017-Dec-16 22:30N 34°34' E 135°24'2 5.0
2017-Dec-16 22:00N 34°33' E 135°27'0 0.0
2017-Dec-16 21:30N 34°33' E 135°27'0 0.0
2017-Dec-16 21:00N 34°33' E 135°27'0 0.0
2017-Dec-16 20:30N 34°33' E 135°27'0 0.0
2017-Dec-16 20:00N 34°33' E 135°27'0 0.0
2017-Dec-16 19:30N 34°33' E 135°27'0 0.0
2017-Dec-16 18:57N 34°33' E 135°27'0 0.0
2017-Dec-16 18:30N 34°33' E 135°27'0 0.0
2017-Dec-16 18:00N 34°33' E 135°27'0 0.0
2017-Dec-16 17:30N 34°33' E 135°27'0 0.0
2017-Dec-16 16:57N 34°33' E 135°27'0 0.0
2017-Dec-16 16:21N 34°33' E 135°27'0 0.0
2017-Dec-16 15:57N 34°33' E 135°27'0 0.0
2017-Dec-16 15:30N 34°33' E 135°27'0 0.0
2017-Dec-16 15:00N 34°33' E 135°27'0 0.0
2017-Dec-16 14:27N 34°33' E 135°27'0 0.0
2017-Dec-16 14:00N 34°33' E 135°27'0 0.0
2017-Dec-16 13:30N 34°33' E 135°27'0 0.0
2017-Dec-16 13:00N 34°33' E 135°27'0 0.0
2017-Dec-16 12:30N 34°33' E 135°27'0 0.0
2017-Dec-16 11:57N 34°33' E 135°27'0 0.0
2017-Dec-16 11:30N 34°33' E 135°27'0 0.0
2017-Dec-16 11:00N 34°33' E 135°27'3 7.1
2017-Dec-16 10:30N 34°32' E 135°23'612.6
2017-Dec-16 10:00N 34°27' E 135°18'612.7
2017-Dec-16 09:30N 34°23' E 135°12'613.0
2017-Dec-16 09:00N 34°20' E 135°05'713.4
2017-Dec-16 08:30N 34°14' E 135°01'713.0
2017-Dec-16 08:00N 34°09' E 134°56'16 4.5
2017-Dec-16 04:30N 33°58' E 134°42'510.7
2017-Dec-16 04:00N 34°01' E 134°36'0 0.0
2017-Dec-15 09:47N 34°01' E 134°36'1311.5
2017-Dec-15 08:41N 34°13' E 134°40'210.7
2017-Dec-15 08:28N 34°15' E 134°39'612.0
2017-Dec-15 08:00N 34°20' E 134°38'712.5
2017-Dec-15 07:29N 34°27' E 134°39'612.6
2017-Dec-15 07:00N 34°33' E 134°39'612.6
2017-Dec-15 06:30N 34°39' E 134°40'612.4
2017-Dec-15 06:00N 34°45' E 134°41'0 0.1
2017-Dec-15 04:34N 34°46' E 134°41'0 1.8
2017-Dec-15 04:30N 34°45' E 134°41'3 5.7
2017-Dec-15 04:00N 34°43' E 134°41'7 4.9
2017-Dec-15 02:30N 34°38' E 134°48'15 9.9
2017-Dec-15 01:01N 34°36' E 135°06'612.0
2017-Dec-15 00:31N 34°35' E 135°13'11 1.9
2017-Dec-14 18:28N 34°33' E 135°27'0 0.0
2017-Dec-14 17:58N 34°33' E 135°27'0 0.0
2017-Dec-14 17:28N 34°33' E 135°27'0 0.0
2017-Dec-14 16:55N 34°33' E 135°27'0 0.0
2017-Dec-14 16:28N 34°33' E 135°27'0 0.0
2017-Dec-14 15:58N 34°33' E 135°27'0 0.0
2017-Dec-14 14:58N 34°33' E 135°27'0 0.0
2017-Dec-14 14:28N 34°33' E 135°27'0 0.0
2017-Dec-14 13:58N 34°33' E 135°27'0 0.0
2017-Dec-14 13:28N 34°33' E 135°27'0 0.0
2017-Dec-14 12:58N 34°33' E 135°27'0 0.0
2017-Dec-14 12:28N 34°33' E 135°27'0 0.0
2017-Dec-14 11:55N 34°33' E 135°27'0 0.0
2017-Dec-14 11:28N 34°33' E 135°27'0 0.0
2017-Dec-14 10:58N 34°33' E 135°27'0 0.0
2017-Dec-14 10:28N 34°33' E 135°27'0 0.0
2017-Dec-14 09:58N 34°33' E 135°27'0 0.0
2017-Dec-14 09:28N 34°33' E 135°27'0 0.0
2017-Dec-14 08:58N 34°33' E 135°27'0 0.0
2017-Dec-14 08:28N 34°33' E 135°27'0 0.0
2017-Dec-14 07:58N 34°33' E 135°27'0 1.1
2017-Dec-14 07:30N 34°33' E 135°26'5 9.3
2017-Dec-14 07:00N 34°37' E 135°23'1 1.9
2017-Dec-14 06:30N 34°38' E 135°24'1 2.4
2017-Dec-14 06:01N 34°37' E 135°23'5 9.1
2017-Dec-14 05:31N 34°33' E 135°26'0 0.7
2017-Dec-14 05:00N 34°33' E 135°27'0 0.0
2017-Dec-14 04:30N 34°33' E 135°27'0 0.0
2017-Dec-14 04:00N 34°33' E 135°27'0 0.0
2017-Dec-14 03:30N 34°33' E 135°27'0 0.0
2017-Dec-14 03:00N 34°33' E 135°27'0 0.0
2017-Dec-14 02:30N 34°33' E 135°27'0 0.0
2017-Dec-14 02:00N 34°33' E 135°27'0 0.0
2017-Dec-14 01:31N 34°33' E 135°27'0 0.0
2017-Dec-14 01:00N 34°33' E 135°27'0 0.0
2017-Dec-14 00:31N 34°33' E 135°27'0 0.0
2017-Dec-14 00:00N 34°33' E 135°27'0 0.0
2017-Dec-13 23:30N 34°33' E 135°27'1 1.4
2017-Dec-13 23:00N 34°33' E 135°26'1 2.3
2017-Dec-13 22:30N 34°33' E 135°24'1 2.2
2017-Dec-13 22:00N 34°33' E 135°25'1 1.9
2017-Dec-13 21:31N 34°33' E 135°27'0 0.1
2017-Dec-13 20:58N 34°33' E 135°27'0 0.0
2017-Dec-13 20:28N 34°33' E 135°27'0 0.0
2017-Dec-13 19:58N 34°33' E 135°27'0 0.0
2017-Dec-13 19:28N 34°33' E 135°27'0 0.0
2017-Dec-13 18:58N 34°33' E 135°27'0 0.0
2017-Dec-13 18:28N 34°33' E 135°27'0 0.0
2017-Dec-13 17:58N 34°33' E 135°27'0 0.0
2017-Dec-13 17:28N 34°33' E 135°27'0 0.0
2017-Dec-13 16:58N 34°33' E 135°27'0 0.0
2017-Dec-13 16:28N 34°33' E 135°27'0 0.0
2017-Dec-13 15:58N 34°33' E 135°27'0 0.0
2017-Dec-13 15:28N 34°33' E 135°27'0 0.0
2017-Dec-13 14:58N 34°33' E 135°27'0 0.0
2017-Dec-13 14:31N 34°33' E 135°27'0 0.0
2017-Dec-13 14:00N 34°33' E 135°27'0 0.0
2017-Dec-13 13:31N 34°33' E 135°27'0 0.0
2017-Dec-13 12:58N 34°33' E 135°27'0 0.0
2017-Dec-13 12:30N 34°33' E 135°27'0 0.0
2017-Dec-13 12:00N 34°33' E 135°27'0 0.0
2017-Dec-13 11:30N 34°33' E 135°27'0 0.0
2017-Dec-13 11:00N 34°33' E 135°27'0 0.0
2017-Dec-13 10:30N 34°33' E 135°27'1 2.1
2017-Dec-13 10:00N 34°33' E 135°25'612.2
2017-Dec-13 09:30N 34°30' E 135°19'612.0
2017-Dec-13 09:00N 34°25' E 135°16'612.7
2017-Dec-13 08:30N 34°22' E 135°09'612.3
2017-Dec-13 08:00N 34°18' E 135°04'4 8.3
2017-Dec-13 07:30N 34°18' E 134°59'713.8
2017-Dec-13 07:00N 34°24' E 135°02'612.3
2017-Dec-13 06:30N 34°30' E 135°05'4 8.7
2017-Dec-13 06:00N 34°34' E 135°07'611.9
2017-Dec-13 05:31N 34°37' E 135°01'713.7
2017-Dec-13 05:01N 34°35' E 134°53'712.9
2017-Dec-13 04:30N 34°33' E 134°45'511.0
2017-Dec-13 04:00N 34°38' E 134°42'611.5
2017-Dec-13 03:30N 34°44' E 134°41'2 2.6
2017-Dec-13 02:45N 34°46' E 134°41'0 0.2
2017-Dec-13 02:30N 34°46' E 134°41'1 2.3
2017-Dec-13 02:00N 34°46' E 134°40'1 0.7
2017-Dec-12 23:55N 34°47' E 134°39'0 0.0
2017-Dec-12 23:23N 34°47' E 134°39'0 0.0
2017-Dec-12 22:57N 34°47' E 134°39'2 0.1
2017-Dec-12 05:17N 34°46' E 134°41'0 0.1
2017-Dec-12 04:50N 34°46' E 134°41'0 0.6
2017-Dec-12 04:28N 34°46' E 134°41'2 4.9
2017-Dec-12 04:00N 34°44' E 134°41'714.0
2017-Dec-12 03:31N 34°37' E 134°43'510.7
2017-Dec-12 03:00N 34°34' E 134°48'714.0
2017-Dec-12 02:31N 34°37' E 134°56'611.2
2017-Dec-12 02:00N 34°36' E 135°03'4 7.8
2017-Dec-12 01:31N 34°35' E 135°08'3 6.0
2017-Dec-12 01:00N 34°32' E 135°09'611.4
2017-Dec-12 00:30N 34°27' E 135°06'612.1
2017-Dec-12 00:00N 34°22' E 135°02'510.5
2017-Dec-11 23:30N 34°17' E 134°59'5 9.9
2017-Dec-11 23:00N 34°12' E 135°00'2 3.7
2017-Dec-11 22:30N 34°12' E 135°02'510.1
2017-Dec-11 22:00N 34°13' E 135°09'0 0.2
2017-Dec-11 21:30N 34°13' E 135°09'0 0.0
2017-Dec-11 21:00N 34°13' E 135°09'0 0.0
2017-Dec-11 20:30N 34°13' E 135°09'0 0.0
2017-Dec-11 20:00N 34°13' E 135°09'0 0.0
2017-Dec-11 19:30N 34°13' E 135°09'0 0.0
2017-Dec-11 19:00N 34°13' E 135°09'0 0.0
2017-Dec-11 18:27N 34°13' E 135°09'0 0.0
2017-Dec-11 18:00N 34°13' E 135°09'0 0.0
2017-Dec-11 17:30N 34°13' E 135°09'0 0.0
2017-Dec-11 17:00N 34°13' E 135°09'0 0.0
2017-Dec-11 16:30N 34°13' E 135°09'0 0.0
2017-Dec-11 16:00N 34°13' E 135°09'0 0.0
2017-Dec-11 15:27N 34°13' E 135°09'0 0.0
2017-Dec-11 15:00N 34°13' E 135°09'0 0.0
2017-Dec-11 14:30N 34°13' E 135°09'0 0.0
2017-Dec-11 14:00N 34°13' E 135°09'0 0.0
2017-Dec-11 13:30N 34°13' E 135°09'0 0.0
2017-Dec-11 13:00N 34°13' E 135°09'0 0.7
2017-Dec-11 12:30N 34°13' E 135°08'714.0
2017-Dec-11 12:01N 34°14' E 135°00'612.5
2017-Dec-11 11:31N 34°21' E 134°60'713.9
2017-Dec-11 11:00N 34°27' E 135°04'611.8
2017-Dec-11 10:30N 34°31' E 135°08'5 9.8
2017-Dec-11 10:00N 34°35' E 135°04'713.0
2017-Dec-11 09:30N 34°36' E 134°57'815.8
2017-Dec-11 09:00N 34°33' E 134°48'815.6
2017-Dec-11 08:30N 34°30' E 134°39'1 2.5
2017-Dec-11 07:59N 34°30' E 134°37'612.9
2017-Dec-11 07:29N 34°36' E 134°38'612.6
2017-Dec-11 07:00N 34°42' E 134°39'4 6.6
2017-Dec-11 06:27N 34°46' E 134°40'1 0.5
2017-Dec-11 04:55N 34°46' E 134°41'1 1.8
2017-Dec-11 04:31N 34°45' E 134°41'4 7.7
2017-Dec-11 04:00N 34°41' E 134°41'0 0.8
2017-Dec-11 03:30N 34°41' E 134°41'4 7.2
2017-Dec-11 03:00N 34°45' E 134°39'3 0.6
2017-Dec-10 23:01N 34°47' E 134°37'0 0.0
2017-Dec-10 22:31N 34°47' E 134°37'0 0.0
2017-Dec-10 22:25N 34°47' E 134°37'0 0.0
2017-Dec-10 21:43N 34°47' E 134°37'0 0.0
2017-Dec-10 18:31N 34°47' E 134°37'0 0.0
2017-Dec-10 18:25N 34°47' E 134°37'0 0.0
2017-Dec-10 14:43N 34°47' E 134°37'0 0.0
2017-Dec-10 14:25N 34°47' E 134°37'0 0.0
2017-Dec-10 13:55N 34°47' E 134°37'0 0.0
2017-Dec-10 13:13N 34°47' E 134°37'0 0.0
2017-Dec-10 12:49N 34°47' E 134°37'0 0.0
2017-Dec-10 12:25N 34°47' E 134°37'0 0.0
2017-Dec-10 11:58N 34°47' E 134°37'0 0.0
2017-Dec-10 11:25N 34°47' E 134°37'0 0.0
2017-Dec-10 10:55N 34°47' E 134°37'0 0.0
2017-Dec-10 10:25N 34°47' E 134°37'0 0.0
2017-Dec-10 09:43N 34°47' E 134°37'0 0.0
2017-Dec-10 09:19N 34°47' E 134°37'0 0.0
2017-Dec-10 08:55N 34°47' E 134°37'0 0.0
2017-Dec-10 08:19N 34°47' E 134°37'0 0.0
2017-Dec-10 07:51N 34°47' E 134°37'1 3.9
2017-Dec-10 07:30N 34°46' E 134°38'713.1
2017-Dec-10 07:00N 34°39' E 134°38'612.2
2017-Dec-10 06:30N 34°35' E 134°32'  
2017-Dec-07 20:44N 34°25' E 134°12'5 9.5
2017-Dec-07 20:11N 34°26' E 134°18'  
Track history (hours):
 
Tides and Currents Weather Stations Pressure Air Temp Water Temp Dewpoint Dewpoint Depression Visibility Wind Speed Wind Dir Waves Ship Positions

Kasagimaru

Last reported at 2017-Dec-17 17:25 UTC. Time now 2017-Dec-17 17:31 UTC.
Position N 34°33' E 135°27'.

Length 42 m; draft 3.5 m.

Type: Tug. MMSI: 431300268.

Date/timePositionNaut miles runAvg speedWind from/ knotsBaromVisibWave heightAir tempDewpointWater temp
2017-Dec-17 17:25N 34°33' E 135°27'0 0.0
2017-Dec-17 16:58N 34°33' E 135°27'0 0.0
2017-Dec-17 16:28N 34°33' E 135°27'0 0.0
2017-Dec-17 15:55N 34°33' E 135°27'0 0.0
2017-Dec-17 15:13N 34°33' E 135°27'0 0.0
2017-Dec-17 14:43N 34°33' E 135°27'0 0.0
2017-Dec-17 14:25N 34°33' E 135°27'0 0.0
2017-Dec-17 13:58N 34°33' E 135°27'0 0.0
2017-Dec-17 13:25N 34°33' E 135°27'0 0.0
2017-Dec-17 12:55N 34°33' E 135°27'0 0.0
2017-Dec-17 12:28N 34°33' E 135°27'0 0.0
2017-Dec-17 11:55N 34°33' E 135°27'0 0.0
2017-Dec-17 11:28N 34°33' E 135°27'0 0.0
2017-Dec-17 10:55N 34°33' E 135°27'0 0.0
2017-Dec-17 10:28N 34°33' E 135°27'0 0.0
2017-Dec-17 09:58N 34°33' E 135°27'1 2.0
2017-Dec-17 09:30N 34°33' E 135°26'510.3
2017-Dec-17 09:00N 34°38' E 135°24'1 2.6
2017-Dec-17 08:30N 34°39' E 135°26'1 1.3
2017-Dec-17 08:00N 34°39' E 135°26'1 1.0
2017-Dec-17 07:30N 34°38' E 135°27'0 0.0
2017-Dec-17 07:00N 34°38' E 135°27'0 0.0
2017-Dec-17 06:30N 34°38' E 135°27'0 0.0
2017-Dec-17 06:00N 34°38' E 135°27'0 0.0
2017-Dec-17 05:30N 34°38' E 135°27'0 0.0
2017-Dec-17 05:00N 34°38' E 135°27'0 0.0
2017-Dec-17 04:30N 34°38' E 135°27'0 0.0
2017-Dec-17 04:00N 34°38' E 135°27'0 0.0
2017-Dec-17 03:31N 34°38' E 135°27'4 8.8
2017-Dec-17 03:00N 34°36' E 135°23'5 9.6
2017-Dec-17 02:30N 34°31' E 135°21'2 4.6
2017-Dec-17 02:00N 34°29' E 135°22'0 0.1
2017-Dec-17 01:30N 34°29' E 135°22'0 0.7
2017-Dec-17 01:00N 34°29' E 135°22'510.0
2017-Dec-17 00:30N 34°34' E 135°21'611.5
2017-Dec-17 00:00N 34°39' E 135°25'1 1.4
2017-Dec-16 23:30N 34°39' E 135°25'1 2.0
2017-Dec-16 23:00N 34°39' E 135°24'5 9.8
2017-Dec-16 22:30N 34°34' E 135°24'2 5.0
2017-Dec-16 22:00N 34°33' E 135°27'0 0.0
2017-Dec-16 21:30N 34°33' E 135°27'0 0.0
2017-Dec-16 21:00N 34°33' E 135°27'0 0.0
2017-Dec-16 20:30N 34°33' E 135°27'0 0.0
2017-Dec-16 20:00N 34°33' E 135°27'0 0.0
2017-Dec-16 19:30N 34°33' E 135°27'0 0.0
2017-Dec-16 18:57N 34°33' E 135°27'0 0.0
2017-Dec-16 18:30N 34°33' E 135°27'0 0.0
2017-Dec-16 18:00N 34°33' E 135°27'0 0.0
2017-Dec-16 17:30N 34°33' E 135°27'0 0.0
2017-Dec-16 16:57N 34°33' E 135°27'0 0.0
2017-Dec-16 16:21N 34°33' E 135°27'0 0.0
2017-Dec-16 15:57N 34°33' E 135°27'0 0.0
2017-Dec-16 15:30N 34°33' E 135°27'0 0.0
2017-Dec-16 15:00N 34°33' E 135°27'0 0.0
2017-Dec-16 14:27N 34°33' E 135°27'0 0.0
2017-Dec-16 14:00N 34°33' E 135°27'0 0.0
2017-Dec-16 13:30N 34°33' E 135°27'0 0.0
2017-Dec-16 13:00N 34°33' E 135°27'0 0.0
2017-Dec-16 12:30N 34°33' E 135°27'0 0.0
2017-Dec-16 11:57N 34°33' E 135°27'0 0.0
2017-Dec-16 11:30N 34°33' E 135°27'0 0.0
2017-Dec-16 11:00N 34°33' E 135°27'3 7.1
2017-Dec-16 10:30N 34°32' E 135°23'612.6
2017-Dec-16 10:00N 34°27' E 135°18'612.7
2017-Dec-16 09:30N 34°23' E 135°12'613.0
2017-Dec-16 09:00N 34°20' E 135°05'713.4
2017-Dec-16 08:30N 34°14' E 135°01'713.0
2017-Dec-16 08:00N 34°09' E 134°56'16 4.5
2017-Dec-16 04:30N 33°58' E 134°42'510.7
2017-Dec-16 04:00N 34°01' E 134°36'0 0.0
2017-Dec-15 09:47N 34°01' E 134°36'1311.5
2017-Dec-15 08:41N 34°13' E 134°40'210.7
2017-Dec-15 08:28N 34°15' E 134°39'612.0
2017-Dec-15 08:00N 34°20' E 134°38'712.5
2017-Dec-15 07:29N 34°27' E 134°39'612.6
2017-Dec-15 07:00N 34°33' E 134°39'612.6
2017-Dec-15 06:30N 34°39' E 134°40'612.4
2017-Dec-15 06:00N 34°45' E 134°41'0 0.1
2017-Dec-15 04:34N 34°46' E 134°41'0 1.8
2017-Dec-15 04:30N 34°45' E 134°41'3 5.7
2017-Dec-15 04:00N 34°43' E 134°41'7 4.9
2017-Dec-15 02:30N 34°38' E 134°48'15 9.9
2017-Dec-15 01:01N 34°36' E 135°06'612.0
2017-Dec-15 00:31N 34°35' E 135°13'11 1.9
2017-Dec-14 18:28N 34°33' E 135°27'0 0.0
2017-Dec-14 17:58N 34°33' E 135°27'0 0.0
2017-Dec-14 17:28N 34°33' E 135°27'0 0.0
2017-Dec-14 16:55N 34°33' E 135°27'0 0.0
2017-Dec-14 16:28N 34°33' E 135°27'0 0.0
2017-Dec-14 15:58N 34°33' E 135°27'0 0.0
2017-Dec-14 14:58N 34°33' E 135°27'0 0.0
2017-Dec-14 14:28N 34°33' E 135°27'0 0.0
2017-Dec-14 13:58N 34°33' E 135°27'0 0.0
2017-Dec-14 13:28N 34°33' E 135°27'0 0.0
2017-Dec-14 12:58N 34°33' E 135°27'0 0.0
2017-Dec-14 12:28N 34°33' E 135°27'0 0.0
2017-Dec-14 11:55N 34°33' E 135°27'0 0.0
2017-Dec-14 11:28N 34°33' E 135°27'0 0.0
2017-Dec-14 10:58N 34°33' E 135°27'0 0.0
2017-Dec-14 10:28N 34°33' E 135°27'0 0.0
2017-Dec-14 09:58N 34°33' E 135°27'0 0.0
2017-Dec-14 09:28N 34°33' E 135°27'0 0.0
2017-Dec-14 08:58N 34°33' E 135°27'0 0.0
2017-Dec-14 08:28N 34°33' E 135°27'0 0.0
2017-Dec-14 07:58N 34°33' E 135°27'0 1.1
2017-Dec-14 07:30N 34°33' E 135°26'5 9.3
2017-Dec-14 07:00N 34°37' E 135°23'1 1.9
2017-Dec-14 06:30N 34°38' E 135°24'1 2.4
2017-Dec-14 06:01N 34°37' E 135°23'5 9.1
2017-Dec-14 05:31N 34°33' E 135°26'0 0.7
2017-Dec-14 05:00N 34°33' E 135°27'0 0.0
2017-Dec-14 04:30N 34°33' E 135°27'0 0.0
2017-Dec-14 04:00N 34°33' E 135°27'0 0.0
2017-Dec-14 03:30N 34°33' E 135°27'0 0.0
2017-Dec-14 03:00N 34°33' E 135°27'0 0.0
2017-Dec-14 02:30N 34°33' E 135°27'0 0.0
2017-Dec-14 02:00N 34°33' E 135°27'0 0.0
2017-Dec-14 01:31N 34°33' E 135°27'0 0.0
2017-Dec-14 01:00N 34°33' E 135°27'0 0.0
2017-Dec-14 00:31N 34°33' E 135°27'0 0.0
2017-Dec-14 00:00N 34°33' E 135°27'0 0.0
2017-Dec-13 23:30N 34°33' E 135°27'1 1.4
2017-Dec-13 23:00N 34°33' E 135°26'1 2.3
2017-Dec-13 22:30N 34°33' E 135°24'1 2.2
2017-Dec-13 22:00N 34°33' E 135°25'1 1.9
2017-Dec-13 21:31N 34°33' E 135°27'0 0.1
2017-Dec-13 20:58N 34°33' E 135°27'0 0.0
2017-Dec-13 20:28N 34°33' E 135°27'0 0.0
2017-Dec-13 19:58N 34°33' E 135°27'0 0.0
2017-Dec-13 19:28N 34°33' E 135°27'0 0.0
2017-Dec-13 18:58N 34°33' E 135°27'0 0.0
2017-Dec-13 18:28N 34°33' E 135°27'0 0.0
2017-Dec-13 17:58N 34°33' E 135°27'0 0.0
2017-Dec-13 17:28N 34°33' E 135°27'0 0.0
2017-Dec-13 16:58N 34°33' E 135°27'0 0.0
2017-Dec-13 16:28N 34°33' E 135°27'0 0.0
2017-Dec-13 15:58N 34°33' E 135°27'0 0.0
2017-Dec-13 15:28N 34°33' E 135°27'0 0.0
2017-Dec-13 14:58N 34°33' E 135°27'0 0.0
2017-Dec-13 14:31N 34°33' E 135°27'0 0.0
2017-Dec-13 14:00N 34°33' E 135°27'0 0.0
2017-Dec-13 13:31N 34°33' E 135°27'0 0.0
2017-Dec-13 12:58N 34°33' E 135°27'0 0.0
2017-Dec-13 12:30N 34°33' E 135°27'0 0.0
2017-Dec-13 12:00N 34°33' E 135°27'0 0.0
2017-Dec-13 11:30N 34°33' E 135°27'0 0.0
2017-Dec-13 11:00N 34°33' E 135°27'0 0.0
2017-Dec-13 10:30N 34°33' E 135°27'1 2.1
2017-Dec-13 10:00N 34°33' E 135°25'612.2
2017-Dec-13 09:30N 34°30' E 135°19'612.0
2017-Dec-13 09:00N 34°25' E 135°16'612.7
2017-Dec-13 08:30N 34°22' E 135°09'612.3
2017-Dec-13 08:00N 34°18' E 135°04'4 8.3
2017-Dec-13 07:30N 34°18' E 134°59'713.8
2017-Dec-13 07:00N 34°24' E 135°02'612.3
2017-Dec-13 06:30N 34°30' E 135°05'4 8.7
2017-Dec-13 06:00N 34°34' E 135°07'611.9
2017-Dec-13 05:31N 34°37' E 135°01'713.7
2017-Dec-13 05:01N 34°35' E 134°53'712.9
2017-Dec-13 04:30N 34°33' E 134°45'511.0
2017-Dec-13 04:00N 34°38' E 134°42'611.5
2017-Dec-13 03:30N 34°44' E 134°41'2 2.6
2017-Dec-13 02:45N 34°46' E 134°41'0 0.2
2017-Dec-13 02:30N 34°46' E 134°41'1 2.3
2017-Dec-13 02:00N 34°46' E 134°40'1 0.7
2017-Dec-12 23:55N 34°47' E 134°39'0 0.0
2017-Dec-12 23:23N 34°47' E 134°39'0 0.0
2017-Dec-12 22:57N 34°47' E 134°39'2 0.1
2017-Dec-12 05:17N 34°46' E 134°41'0 0.1
2017-Dec-12 04:50N 34°46' E 134°41'0 0.6
2017-Dec-12 04:28N 34°46' E 134°41'2 4.9
2017-Dec-12 04:00N 34°44' E 134°41'714.0
2017-Dec-12 03:31N 34°37' E 134°43'510.7
2017-Dec-12 03:00N 34°34' E 134°48'714.0
2017-Dec-12 02:31N 34°37' E 134°56'611.2
2017-Dec-12 02:00N 34°36' E 135°03'4 7.8
2017-Dec-12 01:31N 34°35' E 135°08'3 6.0
2017-Dec-12 01:00N 34°32' E 135°09'611.4
2017-Dec-12 00:30N 34°27' E 135°06'612.1
2017-Dec-12 00:00N 34°22' E 135°02'510.5
2017-Dec-11 23:30N 34°17' E 134°59'5 9.9
2017-Dec-11 23:00N 34°12' E 135°00'2 3.7
2017-Dec-11 22:30N 34°12' E 135°02'510.1
2017-Dec-11 22:00N 34°13' E 135°09'0 0.2
2017-Dec-11 21:30N 34°13' E 135°09'0 0.0
2017-Dec-11 21:00N 34°13' E 135°09'0 0.0
2017-Dec-11 20:30N 34°13' E 135°09'0 0.0
2017-Dec-11 20:00N 34°13' E 135°09'0 0.0
2017-Dec-11 19:30N 34°13' E 135°09'0 0.0
2017-Dec-11 19:00N 34°13' E 135°09'0 0.0
2017-Dec-11 18:27N 34°13' E 135°09'0 0.0
2017-Dec-11 18:00N 34°13' E 135°09'0 0.0
2017-Dec-11 17:30N 34°13' E 135°09'0 0.0
2017-Dec-11 17:00N 34°13' E 135°09'0 0.0
2017-Dec-11 16:30N 34°13' E 135°09'0 0.0
2017-Dec-11 16:00N 34°13' E 135°09'0 0.0
2017-Dec-11 15:27N 34°13' E 135°09'0 0.0
2017-Dec-11 15:00N 34°13' E 135°09'0 0.0
2017-Dec-11 14:30N 34°13' E 135°09'0 0.0
2017-Dec-11 14:00N 34°13' E 135°09'0 0.0
2017-Dec-11 13:30N 34°13' E 135°09'0 0.0
2017-Dec-11 13:00N 34°13' E 135°09'0 0.7
2017-Dec-11 12:30N 34°13' E 135°08'714.0
2017-Dec-11 12:01N 34°14' E 135°00'612.5
2017-Dec-11 11:31N 34°21' E 134°60'713.9
2017-Dec-11 11:00N 34°27' E 135°04'611.8
2017-Dec-11 10:30N 34°31' E 135°08'5 9.8
2017-Dec-11 10:00N 34°35' E 135°04'713.0
2017-Dec-11 09:30N 34°36' E 134°57'815.8
2017-Dec-11 09:00N 34°33' E 134°48'815.6
2017-Dec-11 08:30N 34°30' E 134°39'1 2.5
2017-Dec-11 07:59N 34°30' E 134°37'612.9
2017-Dec-11 07:29N 34°36' E 134°38'612.6
2017-Dec-11 07:00N 34°42' E 134°39'4 6.6
2017-Dec-11 06:27N 34°46' E 134°40'1 0.5
2017-Dec-11 04:55N 34°46' E 134°41'1 1.8
2017-Dec-11 04:31N 34°45' E 134°41'4 7.7
2017-Dec-11 04:00N 34°41' E 134°41'0 0.8
2017-Dec-11 03:30N 34°41' E 134°41'4 7.2
2017-Dec-11 03:00N 34°45' E 134°39'3 0.6
2017-Dec-10 23:01N 34°47' E 134°37'0 0.0
2017-Dec-10 22:31N 34°47' E 134°37'0 0.0
2017-Dec-10 22:25N 34°47' E 134°37'0 0.0
2017-Dec-10 21:43N 34°47' E 134°37'0 0.0
2017-Dec-10 18:31N 34°47' E 134°37'0 0.0
2017-Dec-10 18:25N 34°47' E 134°37'0 0.0
2017-Dec-10 14:43N 34°47' E 134°37'0 0.0
2017-Dec-10 14:25N 34°47' E 134°37'0 0.0
2017-Dec-10 13:55N 34°47' E 134°37'0 0.0
2017-Dec-10 13:13N 34°47' E 134°37'0 0.0
2017-Dec-10 12:49N 34°47' E 134°37'0 0.0
2017-Dec-10 12:25N 34°47' E 134°37'0 0.0
2017-Dec-10 11:58N 34°47' E 134°37'0 0.0
2017-Dec-10 11:25N 34°47' E 134°37'0 0.0
2017-Dec-10 10:55N 34°47' E 134°37'0 0.0
2017-Dec-10 10:25N 34°47' E 134°37'0 0.0
2017-Dec-10 09:43N 34°47' E 134°37'0 0.0
2017-Dec-10 09:19N 34°47' E 134°37'0 0.0
2017-Dec-10 08:55N 34°47' E 134°37'0 0.0
2017-Dec-10 08:19N 34°47' E 134°37'0 0.0
2017-Dec-10 07:51N 34°47' E 134°37'1 3.9
2017-Dec-10 07:30N 34°46' E 134°38'713.1
2017-Dec-10 07:00N 34°39' E 134°38'612.2
2017-Dec-10 06:30N 34°35' E 134°32'  
2017-Dec-07 20:44N 34°25' E 134°12'5 9.5
2017-Dec-07 20:11N 34°26' E 134°18'  

Dump ship's entire track history